sensor_id;sensor_type;location;lat;lon;timestamp;temperature;humidity
35445;DHT22;21562;49.476;6.086;2023-11-19T00:01:40;12.00;99.90
35445;DHT22;21562;49.476;6.086;2023-11-19T00:04:05;12.10;99.90
35445;DHT22;21562;49.476;6.086;2023-11-19T00:06:31;12.00;99.90
35445;DHT22;21562;49.476;6.086;2023-11-19T00:08:57;12.10;99.90
35445;DHT22;21562;49.476;6.086;2023-11-19T00:11:22;12.10;99.90
35445;DHT22;21562;49.476;6.086;2023-11-19T00:13:48;12.00;99.90
35445;DHT22;21562;49.476;6.086;2023-11-19T00:16:13;11.90;99.90
35445;DHT22;21562;49.476;6.086;2023-11-19T00:18:39;11.90;99.90
35445;DHT22;21562;49.476;6.086;2023-11-19T00:21:05;12.00;99.90
35445;DHT22;21562;49.476;6.086;2023-11-19T00:23:31;11.90;99.90
35445;DHT22;21562;49.476;6.086;2023-11-19T00:25:57;11.80;99.90
35445;DHT22;21562;49.476;6.086;2023-11-19T00:28:23;12.00;99.90
35445;DHT22;21562;49.476;6.086;2023-11-19T00:30:49;12.00;99.90
35445;DHT22;21562;49.476;6.086;2023-11-19T00:33:15;12.10;99.90
35445;DHT22;21562;49.476;6.086;2023-11-19T00:35:40;12.10;99.90
35445;DHT22;21562;49.476;6.086;2023-11-19T00:38:06;12.00;99.90
35445;DHT22;21562;49.476;6.086;2023-11-19T00:40:32;12.00;99.90
35445;DHT22;21562;49.476;6.086;2023-11-19T00:42:58;12.10;99.90
35445;DHT22;21562;49.476;6.086;2023-11-19T00:45:23;11.90;99.90
35445;DHT22;21562;49.476;6.086;2023-11-19T00:47:49;12.00;99.90
35445;DHT22;21562;49.476;6.086;2023-11-19T00:50:15;12.00;99.90
35445;DHT22;21562;49.476;6.086;2023-11-19T00:52:41;12.00;99.90
35445;DHT22;21562;49.476;6.086;2023-11-19T00:55:07;12.00;99.90
35445;DHT22;21562;49.476;6.086;2023-11-19T00:57:32;12.00;99.90
35445;DHT22;21562;49.476;6.086;2023-11-19T01:00:01;12.10;99.90
35445;DHT22;21562;49.476;6.086;2023-11-19T01:02:32;12.10;99.90
35445;DHT22;21562;49.476;6.086;2023-11-19T01:04:57;12.30;99.90
35445;DHT22;21562;49.476;6.086;2023-11-19T01:07:23;12.30;99.90
35445;DHT22;21562;49.476;6.086;2023-11-19T01:09:49;12.20;99.90
35445;DHT22;21562;49.476;6.086;2023-11-19T01:12:16;12.00;99.90
35445;DHT22;21562;49.476;6.086;2023-11-19T01:14:41;12.10;99.90
35445;DHT22;21562;49.476;6.086;2023-11-19T01:17:07;12.20;99.90
35445;DHT22;21562;49.476;6.086;2023-11-19T01:19:34;12.40;99.90
35445;DHT22;21562;49.476;6.086;2023-11-19T01:22:00;12.50;99.90
35445;DHT22;21562;49.476;6.086;2023-11-19T01:24:25;12.40;99.90
35445;DHT22;21562;49.476;6.086;2023-11-19T01:26:54;12.50;99.90
35445;DHT22;21562;49.476;6.086;2023-11-19T01:29:19;12.40;99.90
35445;DHT22;21562;49.476;6.086;2023-11-19T01:31:46;12.30;99.90
35445;DHT22;21562;49.476;6.086;2023-11-19T01:34:12;12.30;99.90
35445;DHT22;21562;49.476;6.086;2023-11-19T01:36:38;12.40;99.90
35445;DHT22;21562;49.476;6.086;2023-11-19T01:39:04;12.50;99.90
35445;DHT22;21562;49.476;6.086;2023-11-19T01:41:34;12.40;99.90
35445;DHT22;21562;49.476;6.086;2023-11-19T01:44:01;12.50;99.90
35445;DHT22;21562;49.476;6.086;2023-11-19T01:46:27;12.60;99.90
35445;DHT22;21562;49.476;6.086;2023-11-19T01:48:53;12.50;99.90
35445;DHT22;21562;49.476;6.086;2023-11-19T01:51:19;12.40;99.90
35445;DHT22;21562;49.476;6.086;2023-11-19T01:53:47;12.40;99.90
35445;DHT22;21562;49.476;6.086;2023-11-19T01:56:14;12.40;99.90
35445;DHT22;21562;49.476;6.086;2023-11-19T01:58:42;12.40;99.90
35445;DHT22;21562;49.476;6.086;2023-11-19T02:01:08;12.50;99.90
35445;DHT22;21562;49.476;6.086;2023-11-19T02:03:34;12.50;99.90
35445;DHT22;21562;49.476;6.086;2023-11-19T02:06:00;12.60;99.90
35445;DHT22;21562;49.476;6.086;2023-11-19T02:08:26;12.60;99.90
35445;DHT22;21562;49.476;6.086;2023-11-19T02:10:52;12.70;99.90
35445;DHT22;21562;49.476;6.086;2023-11-19T02:13:21;12.50;99.90
35445;DHT22;21562;49.476;6.086;2023-11-19T02:15:46;12.60;99.90
35445;DHT22;21562;49.476;6.086;2023-11-19T02:20:44;12.60;99.90
35445;DHT22;21562;49.476;6.086;2023-11-19T02:23:10;12.60;99.90
35445;DHT22;21562;49.476;6.086;2023-11-19T02:25:36;12.70;99.90
35445;DHT22;21562;49.476;6.086;2023-11-19T02:28:03;12.60;99.90
35445;DHT22;21562;49.476;6.086;2023-11-19T02:30:29;12.70;99.90
35445;DHT22;21562;49.476;6.086;2023-11-19T02:32:56;12.70;99.90
35445;DHT22;21562;49.476;6.086;2023-11-19T02:35:23;12.70;99.90
35445;DHT22;21562;49.476;6.086;2023-11-19T02:37:49;12.70;99.90
35445;DHT22;21562;49.476;6.086;2023-11-19T02:40:15;12.70;99.90
35445;DHT22;21562;49.476;6.086;2023-11-19T02:42:41;12.80;99.90
35445;DHT22;21562;49.476;6.086;2023-11-19T02:45:07;12.80;99.90
35445;DHT22;21562;49.476;6.086;2023-11-19T02:47:42;12.80;99.90
35445;DHT22;21562;49.476;6.086;2023-11-19T02:50:09;12.80;99.90
35445;DHT22;21562;49.476;6.086;2023-11-19T02:52:43;12.90;99.90
35445;DHT22;21562;49.476;6.086;2023-11-19T02:55:10;12.90;99.90
35445;DHT22;21562;49.476;6.086;2023-11-19T02:57:39;12.80;99.90
35445;DHT22;21562;49.476;6.086;2023-11-19T03:00:21;12.90;99.90
35445;DHT22;21562;49.476;6.086;2023-11-19T03:02:53;13.00;99.90
35445;DHT22;21562;49.476;6.086;2023-11-19T03:05:26;12.90;99.90
35445;DHT22;21562;49.476;6.086;2023-11-19T03:07:55;13.00;99.90
35445;DHT22;21562;49.476;6.086;2023-11-19T03:10:21;13.00;99.90
35445;DHT22;21562;49.476;6.086;2023-11-19T03:12:46;13.10;99.90
35445;DHT22;21562;49.476;6.086;2023-11-19T03:15:12;13.10;99.90
35445;DHT22;21562;49.476;6.086;2023-11-19T03:17:41;13.20;99.90
35445;DHT22;21562;49.476;6.086;2023-11-19T03:20:08;13.30;99.90
35445;DHT22;21562;49.476;6.086;2023-11-19T03:22:43;13.30;99.90
35445;DHT22;21562;49.476;6.086;2023-11-19T03:25:09;13.30;99.90
35445;DHT22;21562;49.476;6.086;2023-11-19T03:27:39;13.30;99.90
35445;DHT22;21562;49.476;6.086;2023-11-19T03:30:06;13.20;99.90
35445;DHT22;21562;49.476;6.086;2023-11-19T03:32:32;13.20;99.90
35445;DHT22;21562;49.476;6.086;2023-11-19T03:34:58;13.20;99.90
35445;DHT22;21562;49.476;6.086;2023-11-19T03:37:26;13.30;99.90
35445;DHT22;21562;49.476;6.086;2023-11-19T03:39:51;13.30;99.90
35445;DHT22;21562;49.476;6.086;2023-11-19T03:42:19;13.30;99.90
35445;DHT22;21562;49.476;6.086;2023-11-19T03:44:46;13.30;99.90
35445;DHT22;21562;49.476;6.086;2023-11-19T03:47:11;13.20;99.90
35445;DHT22;21562;49.476;6.086;2023-11-19T03:49:37;13.30;99.90
35445;DHT22;21562;49.476;6.086;2023-11-19T03:52:03;13.30;99.90
35445;DHT22;21562;49.476;6.086;2023-11-19T03:54:28;13.30;99.90
35445;DHT22;21562;49.476;6.086;2023-11-19T03:56:54;13.30;99.90
35445;DHT22;21562;49.476;6.086;2023-11-19T03:59:20;13.40;99.90
35445;DHT22;21562;49.476;6.086;2023-11-19T04:01:46;13.50;99.90
35445;DHT22;21562;49.476;6.086;2023-11-19T04:04:11;13.50;99.90
35445;DHT22;21562;49.476;6.086;2023-11-19T04:06:37;13.40;99.90
35445;DHT22;21562;49.476;6.086;2023-11-19T04:09:03;13.40;99.90
35445;DHT22;21562;49.476;6.086;2023-11-19T04:11:29;13.40;99.90
35445;DHT22;21562;49.476;6.086;2023-11-19T04:13:54;13.60;99.90
35445;DHT22;21562;49.476;6.086;2023-11-19T04:16:26;13.50;99.90
35445;DHT22;21562;49.476;6.086;2023-11-19T04:18:53;13.60;99.90
35445;DHT22;21562;49.476;6.086;2023-11-19T04:21:19;13.70;99.90
35445;DHT22;21562;49.476;6.086;2023-11-19T04:23:44;13.60;99.90
35445;DHT22;21562;49.476;6.086;2023-11-19T04:26:10;13.60;99.90
35445;DHT22;21562;49.476;6.086;2023-11-19T04:28:35;13.70;99.90
35445;DHT22;21562;49.476;6.086;2023-11-19T04:31:01;13.60;99.90
35445;DHT22;21562;49.476;6.086;2023-11-19T04:33:28;13.60;99.90
35445;DHT22;21562;49.476;6.086;2023-11-19T04:35:54;13.60;99.90
35445;DHT22;21562;49.476;6.086;2023-11-19T04:38:19;13.60;99.90
35445;DHT22;21562;49.476;6.086;2023-11-19T04:40:45;13.60;99.90
35445;DHT22;21562;49.476;6.086;2023-11-19T04:43:11;13.60;99.90
35445;DHT22;21562;49.476;6.086;2023-11-19T04:45:36;13.60;99.90
35445;DHT22;21562;49.476;6.086;2023-11-19T04:48:02;13.60;99.90
35445;DHT22;21562;49.476;6.086;2023-11-19T04:50:28;13.80;99.90
35445;DHT22;21562;49.476;6.086;2023-11-19T04:52:53;13.60;99.90
35445;DHT22;21562;49.476;6.086;2023-11-19T04:55:19;13.60;99.90
35445;DHT22;21562;49.476;6.086;2023-11-19T04:57:45;13.70;99.90
35445;DHT22;21562;49.476;6.086;2023-11-19T05:00:11;13.60;99.90
35445;DHT22;21562;49.476;6.086;2023-11-19T05:02:36;13.60;99.90
35445;DHT22;21562;49.476;6.086;2023-11-19T05:05:03;13.60;99.90
35445;DHT22;21562;49.476;6.086;2023-11-19T05:07:31;13.60;99.90
35445;DHT22;21562;49.476;6.086;2023-11-19T05:09:57;13.60;99.90
35445;DHT22;21562;49.476;6.086;2023-11-19T05:12:23;13.80;99.90
35445;DHT22;21562;49.476;6.086;2023-11-19T05:14:49;13.80;99.90
35445;DHT22;21562;49.476;6.086;2023-11-19T05:17:19;13.90;99.90
35445;DHT22;21562;49.476;6.086;2023-11-19T05:19:45;13.90;99.90
35445;DHT22;21562;49.476;6.086;2023-11-19T05:22:10;13.90;99.90
35445;DHT22;21562;49.476;6.086;2023-11-19T05:24:36;13.90;99.90
35445;DHT22;21562;49.476;6.086;2023-11-19T05:27:02;13.80;99.90
35445;DHT22;21562;49.476;6.086;2023-11-19T05:29:28;13.70;99.90
35445;DHT22;21562;49.476;6.086;2023-11-19T05:31:54;13.70;99.90
35445;DHT22;21562;49.476;6.086;2023-11-19T05:34:20;13.70;99.90
35445;DHT22;21562;49.476;6.086;2023-11-19T05:36:46;13.60;99.90
35445;DHT22;21562;49.476;6.086;2023-11-19T05:39:12;13.80;99.90
35445;DHT22;21562;49.476;6.086;2023-11-19T05:41:37;13.80;99.90
35445;DHT22;21562;49.476;6.086;2023-11-19T05:44:03;13.90;99.90
35445;DHT22;21562;49.476;6.086;2023-11-19T05:46:29;13.80;99.90
35445;DHT22;21562;49.476;6.086;2023-11-19T05:48:54;13.70;99.90
35445;DHT22;21562;49.476;6.086;2023-11-19T05:51:20;13.70;99.90
35445;DHT22;21562;49.476;6.086;2023-11-19T05:53:46;13.80;99.90
35445;DHT22;21562;49.476;6.086;2023-11-19T05:56:11;13.70;99.90
35445;DHT22;21562;49.476;6.086;2023-11-19T05:58:37;13.80;99.90
35445;DHT22;21562;49.476;6.086;2023-11-19T06:01:05;13.80;99.90
35445;DHT22;21562;49.476;6.086;2023-11-19T06:03:32;13.80;99.90
35445;DHT22;21562;49.476;6.086;2023-11-19T06:05:58;13.80;99.90
35445;DHT22;21562;49.476;6.086;2023-11-19T06:08:24;13.70;99.90
35445;DHT22;21562;49.476;6.086;2023-11-19T06:10:52;13.80;99.90
35445;DHT22;21562;49.476;6.086;2023-11-19T06:13:18;13.70;99.90
35445;DHT22;21562;49.476;6.086;2023-11-19T06:15:43;13.80;99.90
35445;DHT22;21562;49.476;6.086;2023-11-19T06:18:09;13.70;99.90
35445;DHT22;21562;49.476;6.086;2023-11-19T06:20:37;13.70;99.90
35445;DHT22;21562;49.476;6.086;2023-11-19T06:23:02;13.60;99.90
35445;DHT22;21562;49.476;6.086;2023-11-19T06:25:28;13.50;99.90
35445;DHT22;21562;49.476;6.086;2023-11-19T06:27:54;13.60;99.90
35445;DHT22;21562;49.476;6.086;2023-11-19T06:30:19;13.50;99.90
35445;DHT22;21562;49.476;6.086;2023-11-19T06:32:46;13.60;99.90
35445;DHT22;21562;49.476;6.086;2023-11-19T06:35:12;13.50;99.90
35445;DHT22;21562;49.476;6.086;2023-11-19T06:37:40;13.60;99.90
35445;DHT22;21562;49.476;6.086;2023-11-19T06:40:06;13.60;99.90
35445;DHT22;21562;49.476;6.086;2023-11-19T06:42:32;13.60;99.90
35445;DHT22;21562;49.476;6.086;2023-11-19T06:44:58;13.60;99.90
35445;DHT22;21562;49.476;6.086;2023-11-19T06:47:27;13.50;99.90
35445;DHT22;21562;49.476;6.086;2023-11-19T06:49:54;13.50;99.90
35445;DHT22;21562;49.476;6.086;2023-11-19T06:52:19;13.50;99.90
35445;DHT22;21562;49.476;6.086;2023-11-19T06:54:45;13.40;99.90
35445;DHT22;21562;49.476;6.086;2023-11-19T06:57:11;13.40;99.90
35445;DHT22;21562;49.476;6.086;2023-11-19T06:59:37;13.50;99.90
35445;DHT22;21562;49.476;6.086;2023-11-19T07:02:03;13.60;99.90
35445;DHT22;21562;49.476;6.086;2023-11-19T07:04:30;13.60;99.90
35445;DHT22;21562;49.476;6.086;2023-11-19T07:06:56;13.40;99.90
35445;DHT22;21562;49.476;6.086;2023-11-19T07:09:21;13.50;99.90
35445;DHT22;21562;49.476;6.086;2023-11-19T07:11:49;13.60;99.90
35445;DHT22;21562;49.476;6.086;2023-11-19T07:14:17;13.70;99.90
35445;DHT22;21562;49.476;6.086;2023-11-19T07:16:43;13.70;99.90
35445;DHT22;21562;49.476;6.086;2023-11-19T07:19:08;13.80;99.90
35445;DHT22;21562;49.476;6.086;2023-11-19T07:21:34;13.60;99.90
35445;DHT22;21562;49.476;6.086;2023-11-19T07:24:00;13.60;99.90
35445;DHT22;21562;49.476;6.086;2023-11-19T07:26:27;13.40;99.90
35445;DHT22;21562;49.476;6.086;2023-11-19T07:28:53;13.40;99.90
35445;DHT22;21562;49.476;6.086;2023-11-19T07:31:19;13.50;99.90
35445;DHT22;21562;49.476;6.086;2023-11-19T07:33:45;13.60;99.90
35445;DHT22;21562;49.476;6.086;2023-11-19T07:36:12;13.50;99.90
35445;DHT22;21562;49.476;6.086;2023-11-19T07:38:37;13.40;99.90
35445;DHT22;21562;49.476;6.086;2023-11-19T07:41:04;13.40;99.90
35445;DHT22;21562;49.476;6.086;2023-11-19T07:43:31;13.50;99.90
35445;DHT22;21562;49.476;6.086;2023-11-19T07:45:56;13.40;99.90
35445;DHT22;21562;49.476;6.086;2023-11-19T07:48:24;13.40;99.90
35445;DHT22;21562;49.476;6.086;2023-11-19T07:50:51;13.40;99.90
35445;DHT22;21562;49.476;6.086;2023-11-19T07:53:17;13.40;99.90
35445;DHT22;21562;49.476;6.086;2023-11-19T07:55:42;13.40;99.90
35445;DHT22;21562;49.476;6.086;2023-11-19T07:58:10;13.40;99.90
35445;DHT22;21562;49.476;6.086;2023-11-19T08:00:36;13.50;99.90
35445;DHT22;21562;49.476;6.086;2023-11-19T08:03:03;13.50;99.90
35445;DHT22;21562;49.476;6.086;2023-11-19T08:05:28;13.50;99.90
35445;DHT22;21562;49.476;6.086;2023-11-19T08:07:54;13.40;99.90
35445;DHT22;21562;49.476;6.086;2023-11-19T08:10:20;13.40;99.90
35445;DHT22;21562;49.476;6.086;2023-11-19T08:12:45;13.40;99.90
35445;DHT22;21562;49.476;6.086;2023-11-19T08:15:11;13.50;99.90
35445;DHT22;21562;49.476;6.086;2023-11-19T08:17:37;13.60;99.90
35445;DHT22;21562;49.476;6.086;2023-11-19T08:20:03;13.40;99.90
35445;DHT22;21562;49.476;6.086;2023-11-19T08:22:30;13.40;99.90
35445;DHT22;21562;49.476;6.086;2023-11-19T08:24:56;13.30;99.90
35445;DHT22;21562;49.476;6.086;2023-11-19T08:27:22;13.40;99.90
35445;DHT22;21562;49.476;6.086;2023-11-19T08:29:54;13.40;99.90
35445;DHT22;21562;49.476;6.086;2023-11-19T08:32:21;13.50;99.90
35445;DHT22;21562;49.476;6.086;2023-11-19T08:34:46;13.40;99.90
35445;DHT22;21562;49.476;6.086;2023-11-19T08:37:12;13.30;99.90
35445;DHT22;21562;49.476;6.086;2023-11-19T08:39:38;13.30;99.90
35445;DHT22;21562;49.476;6.086;2023-11-19T08:42:04;13.30;99.90
35445;DHT22;21562;49.476;6.086;2023-11-19T08:44:30;13.30;99.90
35445;DHT22;21562;49.476;6.086;2023-11-19T08:46:55;13.40;99.90
35445;DHT22;21562;49.476;6.086;2023-11-19T08:49:21;13.40;99.90
35445;DHT22;21562;49.476;6.086;2023-11-19T08:51:46;13.50;99.90
35445;DHT22;21562;49.476;6.086;2023-11-19T08:54:12;13.40;99.90
35445;DHT22;21562;49.476;6.086;2023-11-19T08:56:38;13.40;99.90
35445;DHT22;21562;49.476;6.086;2023-11-19T08:59:05;13.50;99.90
35445;DHT22;21562;49.476;6.086;2023-11-19T09:01:30;13.40;99.90
35445;DHT22;21562;49.476;6.086;2023-11-19T09:03:56;13.30;99.90
35445;DHT22;21562;49.476;6.086;2023-11-19T09:06:22;13.30;99.90
35445;DHT22;21562;49.476;6.086;2023-11-19T09:08:48;13.40;99.90
35445;DHT22;21562;49.476;6.086;2023-11-19T09:11:14;13.30;99.90
35445;DHT22;21562;49.476;6.086;2023-11-19T09:13:39;13.30;99.90
35445;DHT22;21562;49.476;6.086;2023-11-19T09:16:05;13.30;99.90
35445;DHT22;21562;49.476;6.086;2023-11-19T09:18:31;13.30;99.90
35445;DHT22;21562;49.476;6.086;2023-11-19T09:20:58;13.30;99.90
35445;DHT22;21562;49.476;6.086;2023-11-19T09:23:24;13.40;99.90
35445;DHT22;21562;49.476;6.086;2023-11-19T09:25:51;13.30;99.90
35445;DHT22;21562;49.476;6.086;2023-11-19T09:28:17;13.20;99.90
35445;DHT22;21562;49.476;6.086;2023-11-19T09:30:43;13.20;99.90
35445;DHT22;21562;49.476;6.086;2023-11-19T09:33:09;13.20;99.90
35445;DHT22;21562;49.476;6.086;2023-11-19T09:35:35;13.30;99.90
35445;DHT22;21562;49.476;6.086;2023-11-19T09:38:00;13.20;99.90
35445;DHT22;21562;49.476;6.086;2023-11-19T09:40:26;13.20;99.90
35445;DHT22;21562;49.476;6.086;2023-11-19T09:42:54;13.40;99.90
35445;DHT22;21562;49.476;6.086;2023-11-19T09:45:21;13.40;99.90
35445;DHT22;21562;49.476;6.086;2023-11-19T09:47:47;13.50;99.90
35445;DHT22;21562;49.476;6.086;2023-11-19T09:50:19;13.60;99.90
35445;DHT22;21562;49.476;6.086;2023-11-19T09:52:45;13.70;99.90
35445;DHT22;21562;49.476;6.086;2023-11-19T09:55:12;13.80;99.90
35445;DHT22;21562;49.476;6.086;2023-11-19T09:57:41;13.90;99.90
35445;DHT22;21562;49.476;6.086;2023-11-19T10:00:10;14.10;99.90
35445;DHT22;21562;49.476;6.086;2023-11-19T10:02:39;14.00;99.90
35445;DHT22;21562;49.476;6.086;2023-11-19T10:05:06;14.00;99.90
35445;DHT22;21562;49.476;6.086;2023-11-19T10:07:36;14.20;99.90
35445;DHT22;21562;49.476;6.086;2023-11-19T10:10:02;14.50;99.90
35445;DHT22;21562;49.476;6.086;2023-11-19T10:12:31;14.40;99.90
35445;DHT22;21562;49.476;6.086;2023-11-19T10:14:57;14.30;99.90
35445;DHT22;21562;49.476;6.086;2023-11-19T10:17:33;14.40;99.90
35445;DHT22;21562;49.476;6.086;2023-11-19T10:19:59;14.40;99.90
35445;DHT22;21562;49.476;6.086;2023-11-19T10:22:27;14.50;99.90
35445;DHT22;21562;49.476;6.086;2023-11-19T10:24:53;14.40;99.90
35445;DHT22;21562;49.476;6.086;2023-11-19T10:27:18;14.40;99.90
35445;DHT22;21562;49.476;6.086;2023-11-19T10:29:45;14.50;99.90
35445;DHT22;21562;49.476;6.086;2023-11-19T10:32:12;14.80;99.90
35445;DHT22;21562;49.476;6.086;2023-11-19T10:34:39;14.70;99.90
35445;DHT22;21562;49.476;6.086;2023-11-19T10:37:05;14.60;99.90
35445;DHT22;21562;49.476;6.086;2023-11-19T10:39:52;14.70;99.90
35445;DHT22;21562;49.476;6.086;2023-11-19T10:42:19;14.50;99.90
35445;DHT22;21562;49.476;6.086;2023-11-19T10:44:45;14.40;99.90
35445;DHT22;21562;49.476;6.086;2023-11-19T10:47:12;14.20;99.90
35445;DHT22;21562;49.476;6.086;2023-11-19T10:49:39;14.20;99.90
35445;DHT22;21562;49.476;6.086;2023-11-19T10:52:05;14.10;99.90
35445;DHT22;21562;49.476;6.086;2023-11-19T10:54:34;14.00;99.90
35445;DHT22;21562;49.476;6.086;2023-11-19T10:57:02;14.00;99.90
35445;DHT22;21562;49.476;6.086;2023-11-19T10:59:30;13.90;99.90
35445;DHT22;21562;49.476;6.086;2023-11-19T11:01:57;13.80;99.90
35445;DHT22;21562;49.476;6.086;2023-11-19T11:04:25;13.80;99.90
35445;DHT22;21562;49.476;6.086;2023-11-19T11:06:54;13.70;99.90
35445;DHT22;21562;49.476;6.086;2023-11-19T11:09:22;14.10;99.90
35445;DHT22;21562;49.476;6.086;2023-11-19T11:11:50;14.30;99.90
35445;DHT22;21562;49.476;6.086;2023-11-19T11:14:18;14.40;99.90
35445;DHT22;21562;49.476;6.086;2023-11-19T11:16:46;14.30;99.90
35445;DHT22;21562;49.476;6.086;2023-11-19T11:19:15;14.10;99.90
35445;DHT22;21562;49.476;6.086;2023-11-19T11:21:45;14.10;99.90
35445;DHT22;21562;49.476;6.086;2023-11-19T11:24:45;14.10;99.90
35445;DHT22;21562;49.476;6.086;2023-11-19T11:30:18;14.70;99.90
35445;DHT22;21562;49.476;6.086;2023-11-19T11:35:35;15.40;99.90
35445;DHT22;21562;49.476;6.086;2023-11-19T11:38:09;15.10;99.90
35445;DHT22;21562;49.476;6.086;2023-11-19T11:40:35;15.00;99.90
35445;DHT22;21562;49.476;6.086;2023-11-19T11:43:02;15.30;99.90
35445;DHT22;21562;49.476;6.086;2023-11-19T11:45:40;15.40;99.90
35445;DHT22;21562;49.476;6.086;2023-11-19T11:48:19;15.00;99.90
35445;DHT22;21562;49.476;6.086;2023-11-19T11:50:48;15.20;99.90
35445;DHT22;21562;49.476;6.086;2023-11-19T11:53:20;15.10;85.00
35445;DHT22;21562;49.476;6.086;2023-11-19T11:58:15;14.70;32.00
35445;DHT22;21562;49.476;6.086;2023-11-19T12:00:42;14.70;10.00
35445;DHT22;21562;49.476;6.086;2023-11-19T12:03:09;14.80;22.20
35445;DHT22;21562;49.476;6.086;2023-11-19T12:05:41;14.50;38.70
35445;DHT22;21562;49.476;6.086;2023-11-19T12:08:09;14.50;41.00
35445;DHT22;21562;49.476;6.086;2023-11-19T12:10:49;14.40;92.00
35445;DHT22;21562;49.476;6.086;2023-11-19T12:13:16;14.40;99.90
35445;DHT22;21562;49.476;6.086;2023-11-19T12:18:26;14.10;99.90
35445;DHT22;21562;49.476;6.086;2023-11-19T12:20:52;13.90;99.90
35445;DHT22;21562;49.476;6.086;2023-11-19T12:23:18;13.80;99.90
35445;DHT22;21562;49.476;6.086;2023-11-19T12:25:44;13.80;99.90
35445;DHT22;21562;49.476;6.086;2023-11-19T12:28:14;13.90;99.90
35445;DHT22;21562;49.476;6.086;2023-11-19T12:30:42;13.90;99.90
35445;DHT22;21562;49.476;6.086;2023-11-19T12:33:09;14.00;99.90
35445;DHT22;21562;49.476;6.086;2023-11-19T12:35:45;13.90;99.90
35445;DHT22;21562;49.476;6.086;2023-11-19T12:38:19;13.90;99.90
35445;DHT22;21562;49.476;6.086;2023-11-19T12:41:11;13.90;99.90
35445;DHT22;21562;49.476;6.086;2023-11-19T12:43:38;13.80;99.90
35445;DHT22;21562;49.476;6.086;2023-11-19T12:46:22;13.90;99.90
35445;DHT22;21562;49.476;6.086;2023-11-19T12:48:49;13.80;99.90
35445;DHT22;21562;49.476;6.086;2023-11-19T12:51:15;13.90;98.80
35445;DHT22;21562;49.476;6.086;2023-11-19T12:53:53;13.90;99.90
35445;DHT22;21562;49.476;6.086;2023-11-19T12:56:24;13.90;99.90
35445;DHT22;21562;49.476;6.086;2023-11-19T12:58:50;13.80;99.90
35445;DHT22;21562;49.476;6.086;2023-11-19T13:01:17;13.60;99.90
35445;DHT22;21562;49.476;6.086;2023-11-19T13:03:44;13.80;98.60
35445;DHT22;21562;49.476;6.086;2023-11-19T13:06:12;13.70;99.90
35445;DHT22;21562;49.476;6.086;2023-11-19T13:11:07;13.60;99.90
35445;DHT22;21562;49.476;6.086;2023-11-19T13:13:52;13.80;99.90
35445;DHT22;21562;49.476;6.086;2023-11-19T13:16:18;14.00;99.90
35445;DHT22;21562;49.476;6.086;2023-11-19T13:18:44;14.20;83.70
35445;DHT22;21562;49.476;6.086;2023-11-19T13:21:10;14.00;99.90
35445;DHT22;21562;49.476;6.086;2023-11-19T13:23:35;14.00;99.90
35445;DHT22;21562;49.476;6.086;2023-11-19T13:26:01;13.90;99.90
35445;DHT22;21562;49.476;6.086;2023-11-19T13:28:27;13.90;99.90
35445;DHT22;21562;49.476;6.086;2023-11-19T13:30:53;13.80;89.60
35445;DHT22;21562;49.476;6.086;2023-11-19T13:33:19;13.70;84.20
35445;DHT22;21562;49.476;6.086;2023-11-19T13:35:45;13.70;99.90
35445;DHT22;21562;49.476;6.086;2023-11-19T13:38:11;13.80;74.00
35445;DHT22;21562;49.476;6.086;2023-11-19T13:40:36;13.80;90.50
35445;DHT22;21562;49.476;6.086;2023-11-19T13:43:02;13.70;92.30
35445;DHT22;21562;49.476;6.086;2023-11-19T13:45:27;13.60;90.40
35445;DHT22;21562;49.476;6.086;2023-11-19T13:47:53;13.70;83.30
35445;DHT22;21562;49.476;6.086;2023-11-19T13:50:19;13.70;90.40
35445;DHT22;21562;49.476;6.086;2023-11-19T13:52:45;13.80;95.50
35445;DHT22;21562;49.476;6.086;2023-11-19T13:55:13;13.90;99.90
35445;DHT22;21562;49.476;6.086;2023-11-19T13:57:40;14.10;93.20
35445;DHT22;21562;49.476;6.086;2023-11-19T14:00:07;14.30;75.60
35445;DHT22;21562;49.476;6.086;2023-11-19T14:02:41;14.50;59.30
35445;DHT22;21562;49.476;6.086;2023-11-19T14:05:08;14.50;75.70
35445;DHT22;21562;49.476;6.086;2023-11-19T14:07:33;14.40;94.20
35445;DHT22;21562;49.476;6.086;2023-11-19T14:09:59;14.40;99.90
35445;DHT22;21562;49.476;6.086;2023-11-19T14:12:25;14.30;99.90
35445;DHT22;21562;49.476;6.086;2023-11-19T14:14:50;14.30;99.90
35445;DHT22;21562;49.476;6.086;2023-11-19T14:17:16;14.10;99.90
35445;DHT22;21562;49.476;6.086;2023-11-19T14:19:42;13.70;99.90
35445;DHT22;21562;49.476;6.086;2023-11-19T14:22:08;13.60;99.90
35445;DHT22;21562;49.476;6.086;2023-11-19T14:24:34;13.50;99.90
35445;DHT22;21562;49.476;6.086;2023-11-19T14:27:00;13.50;99.90
35445;DHT22;21562;49.476;6.086;2023-11-19T14:29:27;13.60;99.90
35445;DHT22;21562;49.476;6.086;2023-11-19T14:31:55;13.40;99.90
35445;DHT22;21562;49.476;6.086;2023-11-19T14:34:20;13.30;99.90
35445;DHT22;21562;49.476;6.086;2023-11-19T14:36:46;13.40;99.90
35445;DHT22;21562;49.476;6.086;2023-11-19T14:39:13;13.50;99.90
35445;DHT22;21562;49.476;6.086;2023-11-19T14:41:38;13.50;99.90
35445;DHT22;21562;49.476;6.086;2023-11-19T14:44:04;13.50;99.90
35445;DHT22;21562;49.476;6.086;2023-11-19T14:46:31;13.50;99.90
35445;DHT22;21562;49.476;6.086;2023-11-19T14:48:56;13.50;99.90
35445;DHT22;21562;49.476;6.086;2023-11-19T14:51:22;13.40;99.90
35445;DHT22;21562;49.476;6.086;2023-11-19T14:53:48;13.40;99.90
35445;DHT22;21562;49.476;6.086;2023-11-19T14:56:13;13.30;99.90
35445;DHT22;21562;49.476;6.086;2023-11-19T14:58:39;13.20;98.80
35445;DHT22;21562;49.476;6.086;2023-11-19T15:01:06;13.30;99.90
35445;DHT22;21562;49.476;6.086;2023-11-19T15:03:32;13.40;94.90
35445;DHT22;21562;49.476;6.086;2023-11-19T15:05:58;13.30;94.10
35445;DHT22;21562;49.476;6.086;2023-11-19T15:08:24;13.20;99.90
35445;DHT22;21562;49.476;6.086;2023-11-19T15:10:50;13.10;99.90
35445;DHT22;21562;49.476;6.086;2023-11-19T15:13:16;13.10;99.90
35445;DHT22;21562;49.476;6.086;2023-11-19T15:15:41;13.20;99.90
35445;DHT22;21562;49.476;6.086;2023-11-19T15:18:07;13.20;90.50
35445;DHT22;21562;49.476;6.086;2023-11-19T15:20:33;13.30;79.20
35445;DHT22;21562;49.476;6.086;2023-11-19T15:22:58;13.20;92.20
35445;DHT22;21562;49.476;6.086;2023-11-19T15:25:24;13.10;99.90
35445;DHT22;21562;49.476;6.086;2023-11-19T15:27:50;13.00;99.90
35445;DHT22;21562;49.476;6.086;2023-11-19T15:30:16;12.90;99.90
35445;DHT22;21562;49.476;6.086;2023-11-19T15:32:42;13.00;99.90
35445;DHT22;21562;49.476;6.086;2023-11-19T15:35:10;13.10;99.90
35445;DHT22;21562;49.476;6.086;2023-11-19T15:37:36;13.30;99.90
35445;DHT22;21562;49.476;6.086;2023-11-19T15:40:06;13.10;99.90
35445;DHT22;21562;49.476;6.086;2023-11-19T15:42:34;13.20;99.90
35445;DHT22;21562;49.476;6.086;2023-11-19T15:44:59;13.40;99.90